sensor_id;sensor_type;location;lat;lon;timestamp;P1;P2;P0
65574;PMS5003;73096;55.050;73.422;2024-01-30T00:01:45;19.00;17.00;9.00
65574;PMS5003;73096;55.050;73.422;2024-01-30T00:04:54;19.00;17.00;9.67
65574;PMS5003;73096;55.050;73.422;2024-01-30T00:07:58;16.25;14.25;9.00
65574;PMS5003;73096;55.050;73.422;2024-01-30T00:11:00;17.00;15.00;9.33
65574;PMS5003;73096;55.050;73.422;2024-01-30T00:14:04;18.00;17.00;9.00
65574;PMS5003;73096;55.050;73.422;2024-01-30T00:17:07;17.75;17.00;9.00
65574;PMS5003;73096;55.050;73.422;2024-01-30T00:20:10;18.25;17.00;8.75
65574;PMS5003;73096;55.050;73.422;2024-01-30T00:23:13;17.75;15.00;6.00
65574;PMS5003;73096;55.050;73.422;2024-01-30T00:26:17;17.25;17.00;7.75
65574;PMS5003;73096;55.050;73.422;2024-01-30T00:29:24;17.00;15.00;5.00
65574;PMS5003;73096;55.050;73.422;2024-01-30T00:32:27;17.00;15.00;7.00
65574;PMS5003;73096;55.050;73.422;2024-01-30T00:35:29;16.75;14.50;5.50
65574;PMS5003;73096;55.050;73.422;2024-01-30T00:38:32;16.00;13.75;6.50
65574;PMS5003;73096;55.050;73.422;2024-01-30T00:41:35;13.00;11.00;6.00
65574;PMS5003;73096;55.050;73.422;2024-01-30T00:44:38;12.00;12.00;5.75
65574;PMS5003;73096;55.050;73.422;2024-01-30T00:47:41;11.50;10.50;3.25
65574;PMS5003;73096;55.050;73.422;2024-01-30T00:50:44;13.00;11.00;5.00
65574;PMS5003;73096;55.050;73.422;2024-01-30T00:53:46;11.25;11.00;5.00
65574;PMS5003;73096;55.050;73.422;2024-01-30T00:56:49;15.00;11.75;5.75
65574;PMS5003;73096;55.050;73.422;2024-01-30T00:59:58;17.33;15.67;8.00
65574;PMS5003;73096;55.050;73.422;2024-01-30T01:03:00;16.00;15.50;7.25
65574;PMS5003;73096;55.050;73.422;2024-01-30T01:06:04;15.00;13.25;5.00
65574;PMS5003;73096;55.050;73.422;2024-01-30T01:09:06;14.00;13.00;5.00
65574;PMS5003;73096;55.050;73.422;2024-01-30T01:12:08;12.33;12.00;5.00
65574;PMS5003;73096;55.050;73.422;2024-01-30T01:15:12;16.00;13.75;6.00
65574;PMS5003;73096;55.050;73.422;2024-01-30T01:18:15;17.00;15.00;5.00
65574;PMS5003;73096;55.050;73.422;2024-01-30T01:21:17;15.00;13.00;4.50
65574;PMS5003;73096;55.050;73.422;2024-01-30T01:24:23;15.75;14.00;5.75
65574;PMS5003;73096;55.050;73.422;2024-01-30T01:27:26;16.00;15.00;6.00
65574;PMS5003;73096;55.050;73.422;2024-01-30T01:30:30;16.33;14.00;5.00
65574;PMS5003;73096;55.050;73.422;2024-01-30T01:33:39;15.75;14.00;6.00
65574;PMS5003;73096;55.050;73.422;2024-01-30T01:36:42;13.25;12.25;5.00
65574;PMS5003;73096;55.050;73.422;2024-01-30T01:39:46;14.75;12.50;5.25
65574;PMS5003;73096;55.050;73.422;2024-01-30T01:42:52;14.00;13.00;5.00
65574;PMS5003;73096;55.050;73.422;2024-01-30T01:45:56;12.25;11.00;3.75
65574;PMS5003;73096;55.050;73.422;2024-01-30T01:49:00;14.50;13.00;3.25
65574;PMS5003;73096;55.050;73.422;2024-01-30T01:52:03;15.00;13.75;4.00
65574;PMS5003;73096;55.050;73.422;2024-01-30T01:55:08;15.00;13.00;5.00
65574;PMS5003;73096;55.050;73.422;2024-01-30T01:58:15;13.75;13.75;4.00
65574;PMS5003;73096;55.050;73.422;2024-01-30T02:01:18;13.00;12.50;4.50
65574;PMS5003;73096;55.050;73.422;2024-01-30T02:04:22;13.75;13.25;5.75
65574;PMS5003;73096;55.050;73.422;2024-01-30T02:07:27;14.50;13.00;5.75
65574;PMS5003;73096;55.050;73.422;2024-01-30T02:10:30;15.00;13.00;5.00
65574;PMS5003;73096;55.050;73.422;2024-01-30T02:13:34;13.75;12.00;5.50
65574;PMS5003;73096;55.050;73.422;2024-01-30T02:16:37;14.00;11.00;3.50
65574;PMS5003;73096;55.050;73.422;2024-01-30T02:19:41;13.00;13.00;5.25
65574;PMS5003;73096;55.050;73.422;2024-01-30T02:22:49;11.00;11.00;4.00
65574;PMS5003;73096;55.050;73.422;2024-01-30T02:25:51;13.00;13.00;5.00
65574;PMS5003;73096;55.050;73.422;2024-01-30T02:28:56;13.00;12.00;5.00
65574;PMS5003;73096;55.050;73.422;2024-01-30T02:31:59;13.75;12.00;5.00
65574;PMS5003;73096;55.050;73.422;2024-01-30T02:35:11;15.25;13.50;5.25
65574;PMS5003;73096;55.050;73.422;2024-01-30T02:38:15;19.75;17.00;8.25
65574;PMS5003;73096;55.050;73.422;2024-01-30T02:41:21;17.75;16.00;8.00
65574;PMS5003;73096;55.050;73.422;2024-01-30T02:44:23;17.00;16.00;9.00
65574;PMS5003;73096;55.050;73.422;2024-01-30T02:47:25;13.75;13.50;6.00
65574;PMS5003;73096;55.050;73.422;2024-01-30T02:50:29;15.00;14.25;5.00
65574;PMS5003;73096;55.050;73.422;2024-01-30T02:53:31;15.00;15.00;5.00
65574;PMS5003;73096;55.050;73.422;2024-01-30T02:56:33;15.00;14.25;5.75
65574;PMS5003;73096;55.050;73.422;2024-01-30T02:59:36;15.00;15.00;7.00
65574;PMS5003;73096;55.050;73.422;2024-01-30T03:02:39;15.33;15.00;6.00
65574;PMS5003;73096;55.050;73.422;2024-01-30T03:05:46;17.00;15.00;6.33
65574;PMS5003;73096;55.050;73.422;2024-01-30T03:08:50;15.00;13.00;6.00
65574;PMS5003;73096;55.050;73.422;2024-01-30T03:11:52;15.25;14.50;7.00
65574;PMS5003;73096;55.050;73.422;2024-01-30T03:14:55;18.75;17.00;7.00
65574;PMS5003;73096;55.050;73.422;2024-01-30T03:17:58;17.00;16.25;8.00
65574;PMS5003;73096;55.050;73.422;2024-01-30T03:21:04;17.75;17.50;8.00
65574;PMS5003;73096;55.050;73.422;2024-01-30T03:24:07;19.00;16.00;7.50
65574;PMS5003;73096;55.050;73.422;2024-01-30T03:27:10;18.00;16.00;7.00
65574;PMS5003;73096;55.050;73.422;2024-01-30T03:30:14;18.25;16.00;8.00
65574;PMS5003;73096;55.050;73.422;2024-01-30T03:33:18;16.50;15.75;6.00
65574;PMS5003;73096;55.050;73.422;2024-01-30T03:36:21;15.25;13.00;5.00
65574;PMS5003;73096;55.050;73.422;2024-01-30T03:39:24;17.00;14.00;6.50
65574;PMS5003;73096;55.050;73.422;2024-01-30T03:42:30;15.00;12.75;4.00
65574;PMS5003;73096;55.050;73.422;2024-01-30T03:45:34;16.75;14.75;6.00
65574;PMS5003;73096;55.050;73.422;2024-01-30T03:48:37;15.00;13.25;3.75
65574;PMS5003;73096;55.050;73.422;2024-01-30T03:51:41;15.00;13.00;5.00
65574;PMS5003;73096;55.050;73.422;2024-01-30T03:54:45;15.00;13.00;6.00
65574;PMS5003;73096;55.050;73.422;2024-01-30T03:57:47;15.00;14.00;6.00
65574;PMS5003;73096;55.050;73.422;2024-01-30T04:00:51;17.00;15.00;7.00
65574;PMS5003;73096;55.050;73.422;2024-01-30T04:03:54;15.00;13.00;7.00
65574;PMS5003;73096;55.050;73.422;2024-01-30T04:06:57;17.00;13.00;7.00
65574;PMS5003;73096;55.050;73.422;2024-01-30T04:10:00;16.00;13.00;7.00
65574;PMS5003;73096;55.050;73.422;2024-01-30T04:13:06;16.00;15.00;8.00
65574;PMS5003;73096;55.050;73.422;2024-01-30T04:16:08;17.00;16.00;8.00
65574;PMS5003;73096;55.050;73.422;2024-01-30T04:19:10;18.00;15.25;8.75
65574;PMS5003;73096;55.050;73.422;2024-01-30T04:22:25;17.25;16.25;8.50
65574;PMS5003;73096;55.050;73.422;2024-01-30T04:25:27;21.00;18.75;12.25
65574;PMS5003;73096;55.050;73.422;2024-01-30T04:28:31;23.00;21.00;13.00
65574;PMS5003;73096;55.050;73.422;2024-01-30T04:31:36;23.00;21.00;13.00
65574;PMS5003;73096;55.050;73.422;2024-01-30T04:34:38;21.00;19.00;11.00
65574;PMS5003;73096;55.050;73.422;2024-01-30T04:37:40;21.50;19.00;12.00
65574;PMS5003;73096;55.050;73.422;2024-01-30T04:40:47;19.67;19.00;11.00
65574;PMS5003;73096;55.050;73.422;2024-01-30T04:43:49;17.00;17.00;10.00
65574;PMS5003;73096;55.050;73.422;2024-01-30T04:46:53;17.67;17.00;11.00
65574;PMS5003;73096;55.050;73.422;2024-01-30T04:49:56;19.33;18.00;11.00
65574;PMS5003;73096;55.050;73.422;2024-01-30T04:52:58;19.00;16.00;9.00
65574;PMS5003;73096;55.050;73.422;2024-01-30T04:56:02;21.00;18.75;9.75
65574;PMS5003;73096;55.050;73.422;2024-01-30T04:59:05;23.00;20.00;11.00
65574;PMS5003;73096;55.050;73.422;2024-01-30T05:02:07;19.00;18.00;11.00
65574;PMS5003;73096;55.050;73.422;2024-01-30T05:05:10;18.00;16.00;10.00
65574;PMS5003;73096;55.050;73.422;2024-01-30T05:08:14;17.00;16.75;10.00
65574;PMS5003;73096;55.050;73.422;2024-01-30T05:11:17;19.25;17.00;8.75
65574;PMS5003;73096;55.050;73.422;2024-01-30T05:14:20;17.00;14.25;7.00
65574;PMS5003;73096;55.050;73.422;2024-01-30T05:17:24;17.33;15.00;7.00
65574;PMS5003;73096;55.050;73.422;2024-01-30T05:20:26;17.00;16.00;7.00
65574;PMS5003;73096;55.050;73.422;2024-01-30T05:23:32;19.00;16.25;9.00
65574;PMS5003;73096;55.050;73.422;2024-01-30T05:26:34;17.00;14.67;9.00
65574;PMS5003;73096;55.050;73.422;2024-01-30T05:29:37;18.33;18.00;11.00
65574;PMS5003;73096;55.050;73.422;2024-01-30T05:32:40;20.75;19.00;11.25
65574;PMS5003;73096;55.050;73.422;2024-01-30T05:35:44;23.00;20.00;13.00
65574;PMS5003;73096;55.050;73.422;2024-01-30T05:38:49;23.75;20.00;12.75
65574;PMS5003;73096;55.050;73.422;2024-01-30T05:41:59;25.50;22.00;13.50
65574;PMS5003;73096;55.050;73.422;2024-01-30T05:45:01;28.00;23.00;14.00
65574;PMS5003;73096;55.050;73.422;2024-01-30T05:48:12;30.00;24.50;15.00
65574;PMS5003;73096;55.050;73.422;2024-01-30T05:51:16;32.00;25.75;15.75
65574;PMS5003;73096;55.050;73.422;2024-01-30T05:54:19;29.00;23.50;15.00
65574;PMS5003;73096;55.050;73.422;2024-01-30T05:57:22;26.00;23.00;15.00
65574;PMS5003;73096;55.050;73.422;2024-01-30T06:00:25;26.00;22.00;14.00
65574;PMS5003;73096;55.050;73.422;2024-01-30T06:03:28;22.33;20.00;12.33
65574;PMS5003;73096;55.050;73.422;2024-01-30T06:06:30;24.00;21.00;13.50
65574;PMS5003;73096;55.050;73.422;2024-01-30T06:09:34;25.00;21.67;13.00
65574;PMS5003;73096;55.050;73.422;2024-01-30T06:12:36;23.00;21.00;13.00
65574;PMS5003;73096;55.050;73.422;2024-01-30T06:15:42;25.00;21.25;13.50
65574;PMS5003;73096;55.050;73.422;2024-01-30T06:18:46;22.33;20.00;13.00
65574;PMS5003;73096;55.050;73.422;2024-01-30T06:21:50;24.50;21.00;13.00
65574;PMS5003;73096;55.050;73.422;2024-01-30T06:24:52;19.75;17.50;11.50
65574;PMS5003;73096;55.050;73.422;2024-01-30T06:27:55;18.00;16.50;9.50
65574;PMS5003;73096;55.050;73.422;2024-01-30T06:31:00;17.50;17.00;9.75
65574;PMS5003;73096;55.050;73.422;2024-01-30T06:34:04;15.00;13.50;7.00
65574;PMS5003;73096;55.050;73.422;2024-01-30T06:37:09;16.00;15.00;7.00
65574;PMS5003;73096;55.050;73.422;2024-01-30T06:40:11;17.50;16.00;8.00
65574;PMS5003;73096;55.050;73.422;2024-01-30T06:43:13;19.50;17.00;7.75
65574;PMS5003;73096;55.050;73.422;2024-01-30T06:46:15;21.33;18.00;9.00
65574;PMS5003;73096;55.050;73.422;2024-01-30T06:49:19;20.00;18.00;10.00
65574;PMS5003;73096;55.050;73.422;2024-01-30T06:52:21;22.75;20.00;11.00
65574;PMS5003;73096;55.050;73.422;2024-01-30T06:55:23;23.00;20.00;12.50
65574;PMS5003;73096;55.050;73.422;2024-01-30T06:58:26;24.00;20.00;13.00
65574;PMS5003;73096;55.050;73.422;2024-01-30T07:01:28;25.00;22.00;14.00
65574;PMS5003;73096;55.050;73.422;2024-01-30T07:04:32;26.00;21.00;13.00
65574;PMS5003;73096;55.050;73.422;2024-01-30T07:07:37;28.00;23.00;14.00
65574;PMS5003;73096;55.050;73.422;2024-01-30T07:10:44;24.25;21.00;13.00
65574;PMS5003;73096;55.050;73.422;2024-01-30T07:13:47;25.00;21.00;13.00
65574;PMS5003;73096;55.050;73.422;2024-01-30T07:16:51;29.00;23.00;14.00
65574;PMS5003;73096;55.050;73.422;2024-01-30T07:19:54;24.25;22.00;14.00
65574;PMS5003;73096;55.050;73.422;2024-01-30T07:22:58;29.00;24.00;14.00
65574;PMS5003;73096;55.050;73.422;2024-01-30T07:26:02;30.00;24.67;15.00
65574;PMS5003;73096;55.050;73.422;2024-01-30T07:29:05;28.75;23.00;15.00
65574;PMS5003;73096;55.050;73.422;2024-01-30T07:32:07;29.25;23.00;14.00
65574;PMS5003;73096;55.050;73.422;2024-01-30T07:35:17;29.33;23.00;14.00
65574;PMS5003;73096;55.050;73.422;2024-01-30T07:38:24;27.00;23.00;14.00
65574;PMS5003;73096;55.050;73.422;2024-01-30T07:41:30;25.00;22.00;14.00
65574;PMS5003;73096;55.050;73.422;2024-01-30T07:44:33;27.50;23.00;14.00
65574;PMS5003;73096;55.050;73.422;2024-01-30T07:47:35;28.50;23.00;14.00
65574;PMS5003;73096;55.050;73.422;2024-01-30T07:50:37;30.00;23.00;14.50
65574;PMS5003;73096;55.050;73.422;2024-01-30T07:53:41;30.00;24.00;14.00
65574;PMS5003;73096;55.050;73.422;2024-01-30T07:56:52;27.00;21.00;13.00
65574;PMS5003;73096;55.050;73.422;2024-01-30T08:00:00;25.50;20.00;13.00
65574;PMS5003;73096;55.050;73.422;2024-01-30T08:03:04;27.25;22.00;14.25
65574;PMS5003;73096;55.050;73.422;2024-01-30T08:06:07;27.00;22.00;14.00
65574;PMS5003;73096;55.050;73.422;2024-01-30T08:09:09;24.00;21.00;13.25
65574;PMS5003;73096;55.050;73.422;2024-01-30T08:12:12;24.50;21.50;13.00
65574;PMS5003;73096;55.050;73.422;2024-01-30T08:15:15;25.00;22.00;14.00
65574;PMS5003;73096;55.050;73.422;2024-01-30T08:18:18;27.50;22.00;14.50
65574;PMS5003;73096;55.050;73.422;2024-01-30T08:21:20;28.00;22.00;14.00
65574;PMS5003;73096;55.050;73.422;2024-01-30T08:24:23;26.00;21.00;13.00
65574;PMS5003;73096;55.050;73.422;2024-01-30T08:27:26;25.67;20.00;13.67
65574;PMS5003;73096;55.050;73.422;2024-01-30T08:30:29;23.50;21.00;13.00
65574;PMS5003;73096;55.050;73.422;2024-01-30T08:33:31;24.75;21.25;12.00
65574;PMS5003;73096;55.050;73.422;2024-01-30T08:36:33;24.00;20.75;12.00
65574;PMS5003;73096;55.050;73.422;2024-01-30T08:39:36;24.75;20.00;12.25
65574;PMS5003;73096;55.050;73.422;2024-01-30T08:42:38;22.00;20.00;12.00
65574;PMS5003;73096;55.050;73.422;2024-01-30T08:45:40;22.00;20.00;12.00
65574;PMS5003;73096;55.050;73.422;2024-01-30T08:48:47;20.00;18.25;12.00
65574;PMS5003;73096;55.050;73.422;2024-01-30T08:51:50;22.00;20.00;12.00
65574;PMS5003;73096;55.050;73.422;2024-01-30T08:54:53;20.50;20.00;12.00
65574;PMS5003;73096;55.050;73.422;2024-01-30T08:57:57;22.00;20.00;13.00
65574;PMS5003;73096;55.050;73.422;2024-01-30T09:00:59;18.00;18.00;10.00
65574;PMS5003;73096;55.050;73.422;2024-01-30T09:04:03;20.33;19.00;12.00
65574;PMS5003;73096;55.050;73.422;2024-01-30T09:07:05;20.50;18.00;10.00
65574;PMS5003;73096;55.050;73.422;2024-01-30T09:10:11;21.25;18.75;10.25
65574;PMS5003;73096;55.050;73.422;2024-01-30T09:13:14;22.00;18.00;12.00
65574;PMS5003;73096;55.050;73.422;2024-01-30T09:16:16;23.00;20.00;12.00
65574;PMS5003;73096;55.050;73.422;2024-01-30T09:19:19;24.20;21.00;13.00
65574;PMS5003;73096;55.050;73.422;2024-01-30T09:22:22;24.50;21.00;13.50
65574;PMS5003;73096;55.050;73.422;2024-01-30T09:25:25;24.50;21.00;13.00
65574;PMS5003;73096;55.050;73.422;2024-01-30T09:28:29;25.67;22.00;13.00
65574;PMS5003;73096;55.050;73.422;2024-01-30T09:31:32;26.00;23.00;13.00
65574;PMS5003;73096;55.050;73.422;2024-01-30T09:34:36;25.00;22.00;13.00
65574;PMS5003;73096;55.050;73.422;2024-01-30T09:37:40;23.25;21.00;13.00
65574;PMS5003;73096;55.050;73.422;2024-01-30T09:40:42;27.25;21.50;12.00
65574;PMS5003;73096;55.050;73.422;2024-01-30T09:43:46;28.33;22.67;13.00
65574;PMS5003;73096;55.050;73.422;2024-01-30T09:46:51;27.00;23.00;14.00
65574;PMS5003;73096;55.050;73.422;2024-01-30T09:49:53;28.25;23.00;14.00
65574;PMS5003;73096;55.050;73.422;2024-01-30T09:52:57;29.50;24.00;14.50
65574;PMS5003;73096;55.050;73.422;2024-01-30T09:56:02;30.67;25.00;14.00
65574;PMS5003;73096;55.050;73.422;2024-01-30T09:59:06;29.33;24.00;14.00
65574;PMS5003;73096;55.050;73.422;2024-01-30T10:02:08;29.00;24.00;14.00
65574;PMS5003;73096;55.050;73.422;2024-01-30T10:05:13;30.00;24.00;14.00
65574;PMS5003;73096;55.050;73.422;2024-01-30T10:08:17;27.00;22.00;14.00
65574;PMS5003;73096;55.050;73.422;2024-01-30T10:11:26;26.00;22.00;14.00
65574;PMS5003;73096;55.050;73.422;2024-01-30T10:14:29;27.00;22.00;13.00
65574;PMS5003;73096;55.050;73.422;2024-01-30T10:17:32;25.00;22.00;13.00
65574;PMS5003;73096;55.050;73.422;2024-01-30T10:20:36;23.00;21.00;13.00
65574;PMS5003;73096;55.050;73.422;2024-01-30T10:23:39;26.00;23.00;14.00
65574;PMS5003;73096;55.050;73.422;2024-01-30T10:26:45;29.33;23.67;14.00
65574;PMS5003;73096;55.050;73.422;2024-01-30T10:29:50;29.25;22.50;14.00
65574;PMS5003;73096;55.050;73.422;2024-01-30T10:32:53;28.00;23.50;14.00
65574;PMS5003;73096;55.050;73.422;2024-01-30T10:36:00;26.00;23.00;14.00
65574;PMS5003;73096;55.050;73.422;2024-01-30T10:39:23;25.75;22.00;13.75
65574;PMS5003;73096;55.050;73.422;2024-01-30T10:42:27;24.00;20.00;13.00
65574;PMS5003;73096;55.050;73.422;2024-01-30T10:45:33;22.00;19.00;12.00
65574;PMS5003;73096;55.050;73.422;2024-01-30T10:48:41;20.00;18.00;10.00
65574;PMS5003;73096;55.050;73.422;2024-01-30T10:51:45;18.00;17.00;10.00
65574;PMS5003;73096;55.050;73.422;2024-01-30T10:54:48;17.75;17.00;10.00
65574;PMS5003;73096;55.050;73.422;2024-01-30T10:57:52;18.00;16.00;9.00
65574;PMS5003;73096;55.050;73.422;2024-01-30T11:00:55;18.00;16.00;8.00
65574;PMS5003;73096;55.050;73.422;2024-01-30T11:03:58;21.00;17.75;8.25
65574;PMS5003;73096;55.050;73.422;2024-01-30T11:07:02;21.00;17.75;10.25
65574;PMS5003;73096;55.050;73.422;2024-01-30T11:10:08;19.50;17.50;11.25
65574;PMS5003;73096;55.050;73.422;2024-01-30T11:13:13;20.00;17.75;10.25
65574;PMS5003;73096;55.050;73.422;2024-01-30T11:16:16;20.33;18.00;11.67
65574;PMS5003;73096;55.050;73.422;2024-01-30T11:19:25;20.00;17.50;12.00
65574;PMS5003;73096;55.050;73.422;2024-01-30T11:22:30;20.00;18.00;12.00
65574;PMS5003;73096;55.050;73.422;2024-01-30T11:25:32;20.00;17.50;11.50
65574;PMS5003;73096;55.050;73.422;2024-01-30T11:28:36;21.33;20.00;13.00
65574;PMS5003;73096;55.050;73.422;2024-01-30T11:31:51;23.50;21.00;12.25
65574;PMS5003;73096;55.050;73.422;2024-01-30T11:34:54;24.00;20.75;12.00
65574;PMS5003;73096;55.050;73.422;2024-01-30T11:37:57;24.00;19.00;12.00
65574;PMS5003;73096;55.050;73.422;2024-01-30T11:41:00;21.00;18.00;11.00
65574;PMS5003;73096;55.050;73.422;2024-01-30T11:44:03;20.50;18.25;11.00
65574;PMS5003;73096;55.050;73.422;2024-01-30T11:47:07;21.00;18.00;11.00
65574;PMS5003;73096;55.050;73.422;2024-01-30T11:50:10;20.00;17.00;9.00
65574;PMS5003;73096;55.050;73.422;2024-01-30T11:53:13;18.00;17.00;10.00
65574;PMS5003;73096;55.050;73.422;2024-01-30T11:56:16;19.00;16.00;9.00
65574;PMS5003;73096;55.050;73.422;2024-01-30T11:59:18;16.75;15.75;7.00
65574;PMS5003;73096;55.050;73.422;2024-01-30T12:02:21;17.25;16.00;7.00
65574;PMS5003;73096;55.050;73.422;2024-01-30T12:05:25;17.00;16.25;7.00
65574;PMS5003;73096;55.050;73.422;2024-01-30T12:08:29;18.00;16.00;7.00
65574;PMS5003;73096;55.050;73.422;2024-01-30T12:11:33;18.75;15.00;6.75
65574;PMS5003;73096;55.050;73.422;2024-01-30T12:14:51;19.50;17.00;8.25
65574;PMS5003;73096;55.050;73.422;2024-01-30T12:18:03;19.00;17.00;9.00
65574;PMS5003;73096;55.050;73.422;2024-01-30T12:21:09;20.00;18.00;10.67
65574;PMS5003;73096;55.050;73.422;2024-01-30T12:24:11;19.00;17.00;10.00
65574;PMS5003;73096;55.050;73.422;2024-01-30T12:27:14;20.00;16.75;10.00
65574;PMS5003;73096;55.050;73.422;2024-01-30T12:30:20;20.00;15.50;9.00
65574;PMS5003;73096;55.050;73.422;2024-01-30T12:33:42;19.67;16.33;9.33
65574;PMS5003;73096;55.050;73.422;2024-01-30T12:36:45;20.75;18.25;10.00
65574;PMS5003;73096;55.050;73.422;2024-01-30T12:40:07;20.00;17.00;9.00
65574;PMS5003;73096;55.050;73.422;2024-01-30T12:43:15;22.00;19.00;9.00
65574;PMS5003;73096;55.050;73.422;2024-01-30T12:46:18;25.50;21.00;11.25
65574;PMS5003;73096;55.050;73.422;2024-01-30T12:49:21;25.00;21.00;13.00
65574;PMS5003;73096;55.050;73.422;2024-01-30T12:52:23;22.33;20.00;12.67
65574;PMS5003;73096;55.050;73.422;2024-01-30T12:55:26;25.00;20.00;11.25
65574;PMS5003;73096;55.050;73.422;2024-01-30T12:58:31;23.33;19.00;11.00
65574;PMS5003;73096;55.050;73.422;2024-01-30T13:01:34;23.00;18.00;11.00
65574;PMS5003;73096;55.050;73.422;2024-01-30T13:04:38;23.67;20.33;13.00
65574;PMS5003;73096;55.050;73.422;2024-01-30T13:07:44;23.00;20.75;13.00
65574;PMS5003;73096;55.050;73.422;2024-01-30T13:10:46;23.00;20.00;13.00
65574;PMS5003;73096;55.050;73.422;2024-01-30T13:13:51;23.00;21.00;13.00
65574;PMS5003;73096;55.050;73.422;2024-01-30T13:16:54;21.00;19.00;13.00
65574;PMS5003;73096;55.050;73.422;2024-01-30T13:19:56;23.00;18.00;11.00
65574;PMS5003;73096;55.050;73.422;2024-01-30T13:22:59;19.00;15.33;10.00
65574;PMS5003;73096;55.050;73.422;2024-01-30T13:26:01;21.00;17.00;9.50
65574;PMS5003;73096;55.050;73.422;2024-01-30T13:29:25;19.00;16.00;11.00
65574;PMS5003;73096;55.050;73.422;2024-01-30T13:32:27;16.00;15.00;7.25
65574;PMS5003;73096;55.050;73.422;2024-01-30T13:35:32;15.00;15.00;7.00
65574;PMS5003;73096;55.050;73.422;2024-01-30T13:38:34;17.00;16.50;7.00
65574;PMS5003;73096;55.050;73.422;2024-01-30T13:41:57;15.25;14.75;5.75
65574;PMS5003;73096;55.050;73.422;2024-01-30T13:45:01;15.00;13.00;6.00
65574;PMS5003;73096;55.050;73.422;2024-01-30T13:48:07;16.00;15.00;5.00
65574;PMS5003;73096;55.050;73.422;2024-01-30T13:51:10;16.00;14.00;5.00
65574;PMS5003;73096;55.050;73.422;2024-01-30T13:54:16;14.00;13.00;5.00
65574;PMS5003;73096;55.050;73.422;2024-01-30T13:57:18;15.00;13.00;5.00
65574;PMS5003;73096;55.050;73.422;2024-01-30T14:00:41;13.00;11.25;4.00
65574;PMS5003;73096;55.050;73.422;2024-01-30T14:03:45;13.00;13.00;4.50
65574;PMS5003;73096;55.050;73.422;2024-01-30T14:06:47;13.00;11.50;4.50
65574;PMS5003;73096;55.050;73.422;2024-01-30T14:09:50;14.50;13.00;5.00
65574;PMS5003;73096;55.050;73.422;2024-01-30T14:12:55;13.75;11.25;5.00
65574;PMS5003;73096;55.050;73.422;2024-01-30T14:16:08;13.50;11.50;5.50
65574;PMS5003;73096;55.050;73.422;2024-01-30T14:19:14;15.00;13.00;4.67
65574;PMS5003;73096;55.050;73.422;2024-01-30T14:22:19;13.00;12.00;5.00
65574;PMS5003;73096;55.050;73.422;2024-01-30T14:25:22;16.00;15.00;6.00
65574;PMS5003;73096;55.050;73.422;2024-01-30T14:28:26;18.25;16.50;7.00
65574;PMS5003;73096;55.050;73.422;2024-01-30T14:31:31;16.00;15.00;7.00
65574;PMS5003;73096;55.050;73.422;2024-01-30T14:34:35;17.00;13.75;7.00
65574;PMS5003;73096;55.050;73.422;2024-01-30T14:37:46;16.75;14.25;6.00
65574;PMS5003;73096;55.050;73.422;2024-01-30T14:40:52;17.00;17.00;7.75
65574;PMS5003;73096;55.050;73.422;2024-01-30T14:43:55;18.50;15.75;7.00
65574;PMS5003;73096;55.050;73.422;2024-01-30T14:46:59;20.33;16.00;7.00
65574;PMS5003;73096;55.050;73.422;2024-01-30T14:50:02;22.25;18.75;10.00
65574;PMS5003;73096;55.050;73.422;2024-01-30T14:53:06;21.25;19.00;9.00
65574;PMS5003;73096;55.050;73.422;2024-01-30T14:56:08;24.00;21.00;11.00
65574;PMS5003;73096;55.050;73.422;2024-01-30T14:59:14;22.67;19.33;11.00
65574;PMS5003;73096;55.050;73.422;2024-01-30T15:02:21;21.00;19.00;11.00
65574;PMS5003;73096;55.050;73.422;2024-01-30T15:05:23;20.50;18.00;10.00
65574;PMS5003;73096;55.050;73.422;2024-01-30T15:08:27;22.00;19.00;11.00
65574;PMS5003;73096;55.050;73.422;2024-01-30T15:11:33;18.00;17.00;10.00
65574;PMS5003;73096;55.050;73.422;2024-01-30T15:14:37;18.50;15.50;11.00
65574;PMS5003;73096;55.050;73.422;2024-01-30T15:17:39;19.00;17.33;11.00
65574;PMS5003;73096;55.050;73.422;2024-01-30T15:20:45;18.00;16.00;9.00
65574;PMS5003;73096;55.050;73.422;2024-01-30T15:23:47;17.67;17.00;8.33
65574;PMS5003;73096;55.050;73.422;2024-01-30T15:26:51;19.00;16.25;9.00
65574;PMS5003;73096;55.050;73.422;2024-01-30T15:29:55;18.00;15.75;8.00
65574;PMS5003;73096;55.050;73.422;2024-01-30T15:32:57;15.67;15.00;6.00
65574;PMS5003;73096;55.050;73.422;2024-01-30T15:36:02;15.00;15.00;7.00
65574;PMS5003;73096;55.050;73.422;2024-01-30T15:39:06;17.25;16.50;7.00
65574;PMS5003;73096;55.050;73.422;2024-01-30T15:42:09;19.75;17.25;7.25
65574;PMS5003;73096;55.050;73.422;2024-01-30T15:45:13;20.00;17.00;8.50
65574;PMS5003;73096;55.050;73.422;2024-01-30T15:48:17;18.00;17.00;9.00
65574;PMS5003;73096;55.050;73.422;2024-01-30T15:51:19;20.00;19.00;9.75
65574;PMS5003;73096;55.050;73.422;2024-01-30T15:54:22;18.50;17.00;11.00
65574;PMS5003;73096;55.050;73.422;2024-01-30T15:57:27;20.50;19.00;10.00
65574;PMS5003;73096;55.050;73.422;2024-01-30T16:00:29;19.25;18.00;9.00
65574;PMS5003;73096;55.050;73.422;2024-01-30T16:03:36;17.00;15.00;8.00
65574;PMS5003;73096;55.050;73.422;2024-01-30T16:06:38;17.33;15.00;7.00
65574;PMS5003;73096;55.050;73.422;2024-01-30T16:09:40;17.00;14.00;7.00
65574;PMS5003;73096;55.050;73.422;2024-01-30T16:12:44;19.00;16.00;8.00
65574;PMS5003;73096;55.050;73.422;2024-01-30T16:15:49;17.00;15.00;5.25
65574;PMS5003;73096;55.050;73.422;2024-01-30T16:18:52;19.50;16.75;7.00
65574;PMS5003;73096;55.050;73.422;2024-01-30T16:21:56;16.25;15.00;8.00
65574;PMS5003;73096;55.050;73.422;2024-01-30T16:25:02;19.00;16.25;7.00
65574;PMS5003;73096;55.050;73.422;2024-01-30T16:28:07;17.00;15.00;6.25
65574;PMS5003;73096;55.050;73.422;2024-01-30T16:31:11;17.00;15.00;7.00
65574;PMS5003;73096;55.050;73.422;2024-01-30T16:34:13;17.67;15.67;7.00
65574;PMS5003;73096;55.050;73.422;2024-01-30T16:37:16;17.00;15.00;7.00
65574;PMS5003;73096;55.050;73.422;2024-01-30T16:40:18;17.00;16.00;7.67
65574;PMS5003;73096;55.050;73.422;2024-01-30T16:43:22;16.25;15.00;7.00
65574;PMS5003;73096;55.050;73.422;2024-01-30T16:46:26;17.00;15.00;7.00
65574;PMS5003;73096;55.050;73.422;2024-01-30T16:49:30;16.00;13.00;5.00
65574;PMS5003;73096;55.050;73.422;2024-01-30T16:52:35;16.50;13.00;5.00
65574;PMS5003;73096;55.050;73.422;2024-01-30T16:55:39;16.00;12.00;6.25
65574;PMS5003;73096;55.050;73.422;2024-01-30T16:58:51;16.33;14.00;6.00
65574;PMS5003;73096;55.050;73.422;2024-01-30T17:02:00;14.50;13.00;4.50
65574;PMS5003;73096;55.050;73.422;2024-01-30T17:05:04;16.00;15.00;6.00
65574;PMS5003;73096;55.050;73.422;2024-01-30T17:08:06;15.00;15.00;6.00